Date,TemperatureHighF,TemperatureAvgF,TemperatureLowF,DewpointHighF,DewpointAvgF,DewpointLowF,HumidityHigh,HumidityAvg,HumidityLow,PressureMaxIn,PressureMinIn,WindSpeedMaxMPH,WindSpeedAvgMPH,GustSpeedMaxMPH,PrecipitationSumIn
2013-1-1,50,39,34,37,31,25,92,73,49,30.22,30.17,1,0,6,0.00
2013-1-2,53,46,40,34,26,17,61,46,32,30.21,30.09,2,0,11,0.00
2013-1-3,48,44,41,41,30,18,92,61,35,30.26,30.11,5,1,12,0.00
2013-1-4,53,45,40,42,37,27,95,76,50,30.25,30.16,2,0,6,0.00
2013-1-5,44,40,38,40,37,32,97,89,69,30.20,30.04,4,1,16,0.10
2013-1-6,44,40,37,43,39,36,98,96,88,30.20,30.06,2,0,7,0.00
2013-1-7,51,44,38,47,42,35,97,92,83,30.27,30.18,2,1,9,0.00
2013-1-8,56,48,42,44,41,35,98,79,60,30.25,30.13,2,0,8,0.01
2013-1-9,51,41,33,43,39,32,97,91,61,30.14,29.98,3,0,9,0.18
2013-1-10,39,34,32,36,32,29,97,93,81,30.19,30.03,2,0,11,0.05
2013-1-11,42,35,31,37,32,28,94,89,78,30.22,30.13,2,0,10,0.00
2013-1-12,41,34,30,32,27,22,93,74,46,30.20,30.11,2,0,6,0.00
2013-1-13,44,37,33,33,26,22,82,66,50,30.27,30.15,1,0,4,0.00
2013-1-14,47,40,36,36,24,6,82,55,27,30.42,30.27,0,0,3,0.00
2013-1-15,54,46,39,41,30,14,87,57,36,30.49,30.42,1,0,4,0.00
2013-1-16,57,50,43,45,36,26,75,59,34,30.46,30.33,1,0,2,0.00
2013-1-17,64,56,50,45,29,16,57,37,20,30.33,30.25,1,0,7,0.00
2013-1-18,64,56,51,38,24,16,50,30,20,30.30,30.24,3,0,7,0.00
2013-1-19,63,55,51,31,23,13,42,28,20,30.32,30.25,0,0,3,0.00
2013-1-20,65,56,51,31,19,12,34,24,19,30.30,30.23,1,0,6,0.00
2013-1-21,64,56,52,34,23,14,39,28,21,30.26,30.17,1,0,8,0.00
2013-1-22,62,56,53,37,23,11,43,29,17,30.19,30.07,5,1,23,0.00
2013-1-23,52,47,42,44,36,23,98,71,32,30.16,30.01,5,2,18,0.04
2013-1-24,54,49,45,51,47,44,98,94,82,30.28,30.15,2,0,6,0.02
2013-1-25,54,50,45,51,47,43,94,91,85,30.28,30.16,0,0,1,0.01
2013-1-26,47,42,37,46,40,36,97,91,75,30.16,30.08,2,0,10,0.01
2013-1-27,45,37,34,37,34,31,95,88,70,30.25,30.14,3,0,7,0.01
2013-1-28,45,40,36,40,37,34,97,90,76,30.38,30.24,3,1,10,0.01
2013-1-29,48,39,37,40,36,35,95,90,74,30.42,30.38,4,1,10,0.00
2013-1-30,63,52,41,43,35,24,93,56,27,30.42,30.35,0,0,3,0.00
2013-1-31,61,54,50,47,39,29,79,58,41,30.36,30.27,1,0,4,0.00
2013-2-1,63,54,49,43,38,28,71,56,32,30.28,30.22,3,0,11,0.00
2013-2-2,54,47,41,47,40,34,95,78,53,30.35,30.28,3,0,9,0.00
2013-2-3,54,45,40,46,40,31,97,85,56,30.31,30.23,2,0,4,0.00
2013-2-4,59,50,39,49,39,27,96,69,41,30.24,30.14,1,0,3,0.00
2013-2-5,47,41,38,45,40,37,98,96,92,30.24,30.13,3,0,6,0.01
2013-2-6,50,41,36,43,37,33,97,88,70,30.26,30.20,2,0,5,0.01
2013-2-7,43,39,34,41,37,32,97,92,79,30.20,30.04,4,0,13,0.16
2013-2-8,47,37,31,37,33,30,96,86,63,30.10,30.01,2,0,7,0.00
2013-2-9,52,40,31,38,30,24,90,68,49,30.16,30.08,1,0,4,0.00
2013-2-10,55,48,44,43,32,25,71,54,39,30.18,30.13,1,0,7,0.00
2013-2-11,60,50,45,45,32,24,66,52,38,30.28,30.17,0,0,4,0.00
2013-2-12,55,48,43,41,35,29,77,61,48,30.42,30.28,2,0,6,0.00
2013-2-13,60,50,44,45,40,36,80,70,55,30.40,30.32,1,0,4,0.00
2013-2-14,55,52,48,41,36,31,75,57,41,30.32,30.30,0,0,1,0.00
2013-2-15,67,58,53,42,30,24,42,35,28,30.37,30.31,2,0,8,0.00
2013-2-16,64,55,45,43,34,25,66,46,32,30.35,30.17,1,0,4,0.00
2013-2-17,55,43,35,41,34,31,89,73,52,30.17,30.08,2,0,7,0.00
2013-2-18,47,38,34,39,35,32,95,89,68,30.09,30.01,2,0,7,0.01
2013-2-19,40,36,32,37,34,30,97,93,81,30.02,29.83,4,1,12,0.42
2013-2-20,47,37,31,39,33,29,94,87,70,30.17,29.93,3,0,9,0.00
2013-2-21,49,40,33,38,35,32,95,82,56,30.27,30.15,2,0,9,0.01
2013-2-22,52,42,36,41,34,26,94,74,51,30.33,30.26,2,0,6,0.00
2013-2-23,46,39,34,41,34,30,95,84,65,30.36,30.25,3,1,9,0.01
2013-2-24,55,42,33,39,32,25,90,69,40,30.35,30.27,1,0,5,0.00
2013-2-25,54,42,35,41,35,30,91,75,44,30.34,30.29,2,1,11,0.00
2013-2-26,62,47,35,42,26,14,87,46,21,30.32,30.27,2,0,6,0.00
2013-2-27,59,49,43,44,31,13,95,54,27,30.45,30.31,2,0,6,0.00
2013-2-28,59,50,45,51,47,44,97,89,70,30.53,30.44,2,0,6,0.00
2013-3-1,65,53,46,47,43,35,97,71,48,30.53,30.36,2,0,5,0.01
2013-3-2,61,56,52,50,44,19,76,64,24,30.36,30.19,0,0,3,0.00
2013-3-3,58,49,40,47,40,34,95,73,49,30.19,30.13,3,0,5,0.00
2013-3-4,54,43,36,47,39,6,96,87,28,30.19,30.10,4,0,6,0.00
2013-3-5,43,40,35,42,36,2,97,89,21,30.10,29.78,12,3,33,0.99
2013-3-6,42,41,41,41,40,40,97,97,97,29.80,29.79,10,9,18,0.07
2013-3-9,46,46,46,36,36,36,68,68,68,30.40,30.40,0,0,0,0.00
2013-3-10,64,51,44,39,35,29,70,56,27,30.41,30.35,0,0,4,0.00
2013-3-11,65,55,49,47,40,34,66,58,48,30.36,30.24,3,0,6,0.00
2013-3-12,68,55,46,53,43,37,78,65,47,30.26,30.21,2,0,7,0.00
2013-3-13,70,60,51,51,43,33,68,54,37,30.28,30.21,3,0,7,0.00
2013-3-14,63,55,45,43,36,23,74,51,30,30.30,30.20,1,0,5,0.00
2013-3-15,65,52,45,50,43,37,84,71,53,30.26,30.19,3,0,12,0.00
2013-3-16,61,50,44,43,39,32,84,67,39,30.25,30.18,2,0,8,0.00
2013-3-17,58,45,39,40,37,31,95,74,45,30.25,30.17,2,0,6,0.00
2013-3-18,60,49,42,40,32,27,72,52,40,30.22,30.15,1,0,4,0.00
2013-3-19,54,47,39,45,38,23,96,73,40,30.21,30.11,6,1,13,0.02
2013-3-20,50,46,38,49,45,37,98,97,95,30.22,30.08,6,2,12,0.24
2013-3-21,52,40,33,42,36,32,97,86,62,30.23,30.16,3,0,9,0.00
2013-3-22,53,41,34,39,32,23,90,70,43,30.23,30.17,3,0,6,0.01
2013-3-23,58,45,36,39,31,24,86,60,33,30.22,30.17,1,0,5,0.00
2013-3-24,62,50,43,45,35,28,65,57,45,30.19,30.10,2,0,2,0.00
2013-3-25,52,43,38,43,36,17,94,76,34,30.11,30.04,2,0,6,0.00
2013-3-26,59,46,36,47,41,35,95,81,59,30.08,30.03,3,0,7,0.00
2013-3-27,52,48,45,51,46,42,96,93,89,30.09,30.02,2,0,5,0.02
2013-3-28,54,48,45,50,46,42,95,92,79,30.17,30.08,3,0,11,0.02
2013-3-29,69,57,49,54,48,44,93,74,51,30.19,30.14,4,0,12,0.00
2013-3-30,63,54,48,50,46,-100,95,78,51,30.17,30.10,5,1,16,0.03
2013-3-31,52,48,46,51,47,45,98,96,94,30.14,30.08,4,1,12,0.13
2013-4-1,54,48,45,50,46,44,98,94,85,30.24,30.12,3,0,7,0.00
2013-4-2,62,51,44,54,46,41,97,83,58,30.27,30.21,1,0,6,0.01
2013-4-3,67,56,47,54,43,34,83,62,48,30.24,30.08,4,1,11,0.00
2013-4-4,54,48,43,53,47,38,100,94,62,30.19,30.03,5,2,16,1.01
2013-4-5,51,48,46,50,47,45,98,95,87,30.26,30.18,2,0,9,0.07
2013-4-6,58,50,46,52,47,44,98,90,70,30.27,30.19,3,0,10,0.09
2013-4-7,53,47,39,49,44,38,98,93,81,30.23,29.93,5,1,20,0.47
2013-4-8,54,43,35,43,38,32,97,83,62,30.19,29.94,6,1,20,0.00
2013-4-9,63,49,38,48,39,35,94,72,48,30.28,30.19,3,0,6,0.00
2013-4-10,71,58,47,55,47,41,93,68,49,30.35,30.24,2,0,8,0.00
2013-4-11,59,48,41,47,41,38,95,79,54,30.24,30.02,4,1,10,0.00
2013-4-12,66,49,41,50,41,34,93,75,45,30.05,29.99,2,0,6,0.00
2013-4-13,56,47,37,46,38,32,88,73,57,30.07,30.01,4,1,11,0.00
2013-4-14,56,43,36,40,34,29,95,73,40,30.07,29.96,4,0,11,0.01
2013-4-15,48,39,34,39,35,31,96,84,63,30.09,29.96,4,1,17,0.01
2013-4-16,55,43,34,39,34,29,90,74,48,30.28,30.09,4,0,11,0.00
2013-4-17,59,47,37,41,36,31,85,65,38,30.38,30.28,3,0,6,0.00
2013-4-18,66,54,43,49,40,35,77,62,45,30.38,30.32,3,0,8,0.00
2013-4-19,70,58,48,50,45,41,78,63,42,30.35,30.27,3,0,15,0.00
2013-4-20,68,53,43,52,42,37,82,65,43,30.27,30.16,4,0,10,0.00
2013-4-21,76,60,49,50,42,35,70,52,33,30.19,30.12,2,0,5,0.00
2013-4-22,79,67,55,52,42,33,65,42,24,30.13,30.03,2,0,7,0.00
2013-4-23,75,65,56,46,32,18,40,29,18,30.09,30.01,2,0,9,0.00
2013-4-24,77,64,49,50,34,18,73,34,21,30.03,29.96,2,0,6,0.00
2013-4-25,63,48,40,52,43,38,97,85,64,30.22,30.03,3,0,7,0.00
2013-4-26,71,58,42,56,45,27,97,63,33,30.32,30.19,3,0,4,0.00
2013-4-27,77,65,55,51,40,31,57,42,30,30.33,30.23,2,0,7,0.00
2013-4-28,80,63,52,50,40,32,58,44,33,30.23,30.10,2,0,10,0.00
2013-4-29,73,60,47,51,44,39,76,56,42,30.10,30.00,2,1,14,0.00
2013-4-30,69,56,45,43,36,26,77,50,28,30.08,29.98,3,1,10,0.00
2013-5-1,83,67,55,34,24,11,29,20,14,30.25,30.05,3,0,10,0.00
2013-5-2,83,73,64,42,25,15,24,17,13,30.30,30.25,3,0,9,0.00
2013-5-3,86,74,62,42,30,12,29,20,13,30.25,30.00,2,0,0,0.00
2013-5-4,84,73,60,42,34,25,51,25,16,30.00,29.70,3,0,9,0.00
2013-5-5,59,49,46,48,46,42,95,89,54,29.93,29.69,8,3,19,0.01
2013-5-6,62,53,47,52,47,43,94,82,63,30.08,29.93,3,0,10,0.01
2013-5-7,64,54,48,52,46,42,89,76,61,30.14,30.07,2,0,7,0.00
2013-5-8,65,53,47,51,45,41,91,76,58,30.22,30.13,3,0,7,0.00
2013-5-9,68,55,43,55,47,41,96,77,59,30.27,30.19,1,0,3,0.00
2013-5-10,78,61,50,56,47,-100,91,66,43,30.29,30.24,2,0,11,0.00
2013-5-11,84,69,52,58,47,-100,81,49,23,30.27,30.20,1,0,7,0.00
2013-5-12,76,64,52,60,50,25,96,64,29,30.29,30.19,3,0,7,0.00
2013-5-13,74,61,53,56,48,33,85,64,40,30.24,30.14,3,0,12,0.00
2013-5-14,72,57,46,49,42,36,72,59,39,30.14,30.10,2,0,11,0.00
2013-5-15,66,52,44,47,39,31,93,64,43,30.19,30.11,3,0,12,0.00
2013-5-16,62,49,45,53,31,-100,96,84,59,30.16,30.08,5,0,13,0.00
2013-5-17,62,50,43,48,40,-100,95,79,55,30.19,30.07,3,0,10,0.00
2013-5-18,66,52,43,51,45,41,95,78,48,30.28,30.17,3,0,12,0.00
2013-5-19,73,56,42,51,45,40,94,69,39,30.27,30.18,2,0,6,0.00
2013-5-20,81,67,53,48,40,33,65,40,23,30.19,30.10,2,0,11,0.00
2013-5-21,58,50,39,46,39,26,94,69,34,30.17,30.08,4,1,12,0.00
2013-5-22,55,44,36,40,36,31,90,73,48,30.16,30.06,4,1,12,0.00
2013-5-23,58,46,37,43,38,35,92,76,55,30.14,30.03,4,1,13,0.00
2013-5-24,61,48,39,47,40,36,92,77,53,30.13,30.08,1,0,5,0.00
2013-5-25,64,50,40,46,42,36,94,76,47,30.16,30.06,2,0,12,0.00
2013-5-26,65,52,45,54,47,42,97,84,55,30.24,30.14,2,0,7,0.01
2013-5-27,53,50,44,52,49,42,97,96,92,30.23,30.09,4,0,10,0.51
2013-5-28,65,54,47,56,50,44,98,89,69,30.13,30.06,1,0,4,0.00
2013-5-29,63,52,45,54,48,43,97,89,70,30.11,30.02,2,0,9,0.00
2013-5-30,63,51,42,51,44,40,96,79,57,30.16,30.08,3,0,7,0.01
2013-5-31,74,57,43,53,44,39,88,63,39,30.19,30.15,1,0,7,0.00
2013-6-1,79,62,50,52,44,37,73,53,32,30.16,30.03,4,0,12,0.00
2013-6-2,75,61,47,57,50,45,93,70,48,30.03,29.86,3,0,9,0.00
2013-6-3,80,70,57,60,54,44,80,59,40,29.97,29.86,0,0,4,0.00
2013-6-4,75,62,51,57,52,46,90,71,51,30.07,29.96,1,0,5,0.00
2013-6-5,77,61,45,60,52,43,96,74,53,30.10,30.04,0,0,0,0.00
2013-6-6,83,71,62,60,52,47,62,51,35,30.07,30.02,2,0,7,0.00
2013-6-7,96,77,63,63,52,47,61,44,23,30.04,29.97,1,0,5,0.00
2013-6-8,99,84,69,62,55,51,62,40,21,29.97,29.92,3,0,6,0.00
2013-6-9,68,58,50,55,51,48,94,78,62,30.00,29.94,4,1,10,0.00
2013-6-10,59,52,49,52,50,47,97,91,79,30.08,29.93,2,0,1,0.00
2013-6-11,72,57,49,56,48,40,97,75,45,30.11,30.05,1,0,9,0.00
2013-6-12,68,53,44,50,44,40,90,73,50,30.16,30.06,3,1,12,0.00
2013-6-13,68,53,42,50,43,39,93,70,48,30.26,30.16,4,0,13,0.00
2013-6-14,78,61,47,54,43,38,83,56,33,30.19,30.01,1,0,5,0.00
2013-6-15,77,60,53,50,41,37,61,51,35,30.14,29.99,3,0,9,0.00
2013-6-16,75,60,50,54,46,39,76,61,43,30.24,30.13,3,0,7,0.00
2013-6-17,70,56,48,55,48,42,91,75,54,30.23,30.16,3,0,9,0.00
2013-6-18,63,52,45,49,46,43,95,80,56,30.16,30.11,4,1,14,0.00
2013-6-19,65,52,43,50,45,41,95,78,53,30.19,30.13,3,0,12,0.00
2013-6-20,70,52,44,48,44,41,95,76,40,30.19,30.11,1,0,3,0.00
2013-6-21,72,68,61,50,47,43,51,48,45,30.14,30.11,1,1,0,0.00
2013-6-22,78,66,51,53,48,39,94,56,32,30.11,30.03,3,1,12,0.00
2013-6-23,62,56,52,60,54,50,97,94,88,30.03,29.93,4,0,12,0.08
2013-6-24,55,52,50,52,50,49,98,96,89,29.97,29.91,5,1,18,0.16
2013-6-25,58,55,52,57,54,51,98,98,98,30.09,29.96,7,2,14,0.03
2013-6-26,71,61,57,62,58,54,99,91,69,30.19,30.08,3,0,7,0.06
2013-6-27,79,65,55,66,57,53,97,78,55,30.27,30.17,1,0,6,0.00
2013-6-28,88,76,62,62,54,50,81,50,29,30.23,30.16,1,0,7,0.00
2013-6-29,91,79,69,61,53,46,55,42,30,30.16,30.07,2,0,5,0.00
2013-6-30,86,71,63,59,53,49,66,55,37,30.07,30.01,2,0,9,0.00
2013-7-1,90,74,61,60,54,48,66,51,27,30.08,30.01,1,0,6,0.00
2013-7-2,96,83,73,65,59,54,59,46,32,30.09,30.05,1,0,6,0.00
2013-7-3,93,84,76,66,62,57,56,48,41,30.06,29.99,5,0,7,0.00
2013-7-4,91,76,60,58,46,41,62,37,25,30.02,29.96,3,1,16,0.00
2013-7-5,76,62,51,56,50,46,88,65,48,29.96,29.88,2,0,11,0.00
2013-7-9,86,80,72,51,45,37,36,29,25,30.17,30.12,3,0,9,0.00
2013-7-10,85,71,60,57,42,-100,48,37,27,30.10,30.05,1,0,4,0.00
2013-7-11,82,69,58,56,50,37,64,51,34,30.05,30.01,1,0,4,0.00
2013-7-12,79,70,60,49,44,37,56,40,29,30.07,30.03,1,0,7,0.00
2013-7-13,82,70,60,57,44,36,52,39,30,30.10,30.02,2,0,6,0.00
2013-7-14,85,73,64,55,43,37,45,35,26,30.11,30.05,1,0,4,0.00
2013-7-15,78,66,56,56,52,48,78,63,43,30.00,29.96,0,0,3,0.00
2013-7-16,66,53,45,55,48,42,96,85,64,30.14,29.95,4,1,8,0.00
2013-7-25,89,81,68,53,49,47,58,34,26,30.14,30.10,2,0,6,0.00
2013-7-26,74,74,74,51,51,51,45,45,45,30.16,30.16,0,0,0,0.00
2013-7-27,85,77,69,59,55,52,55,47,41,30.08,30.02,1,0,5,0.00
2013-7-28,79,74,67,56,50,42,46,42,36,29.99,29.94,2,0,5,0.00
2013-7-29,73,66,60,57,54,51,74,64,57,30.09,30.05,2,0,6,0.00
2013-7-31,76,64,49,53,48,45,91,60,38,30.20,30.16,2,0,9,0.00
2013-8-1,70,57,47,52,48,45,94,75,47,30.19,30.13,3,0,10,0.00
2013-10-2,61,50,45,47,43,40,90,78,57,30.19,30.08,1,0,7,0.00
2013-10-3,61,51,44,44,40,33,82,66,47,30.23,30.17,2,0,10,0.00
2013-10-4,75,62,52,38,30,20,47,31,19,30.24,30.18,2,0,5,0.00
2013-10-5,77,64,60,34,22,-100,28,21,15,30.32,30.24,2,0,7,0.00
2013-10-6,79,67,61,40,29,22,33,24,16,30.26,30.16,1,0,6,0.00
2013-10-7,72,60,48,46,33,21,85,40,21,30.15,30.05,1,0,4,0.00
2013-10-8,64,51,45,46,42,40,87,72,47,30.05,29.90,2,0,7,0.00
2013-10-9,61,50,42,44,40,38,88,70,47,29.91,29.79,2,0,10,0.00
2013-10-10,63,54,49,47,39,35,66,58,39,30.10,29.90,2,0,0,0.00
2013-10-18,76,64,55,45,33,23,40,31,27,30.17,30.12,2,0,7,0.00
2013-10-19,77,64,59,45,33,-100,42,32,25,30.21,30.16,1,0,4,0.00
2013-10-20,77,67,60,48,36,26,46,33,21,30.16,30.07,0,0,1,0.00
2013-10-21,76,69,62,48,42,37,45,38,27,30.10,30.07,0,0,1,0.00
2013-10-22,75,70,60,47,41,38,52,37,27,30.13,30.08,2,0,9,0.00
2013-10-23,76,69,61,45,41,35,51,37,28,30.06,30.04,0,0,1,0.00
2013-10-24,65,55,45,49,45,33,91,70,45,30.16,30.09,1,0,3,0.00
2013-10-25,65,59,49,51,45,34,71,59,44,30.25,30.20,0,0,2,0.00
2013-10-26,75,64,59,47,31,-100,42,32,28,30.24,30.17,0,0,3,0.00
2013-10-27,61,49,43,45,42,28,91,78,28,30.16,29.80,2,0,10,0.00
2013-10-28,53,44,40,43,39,-100,94,87,65,29.91,29.79,1,0,10,0.01
2013-10-29,55,46,40,48,42,38,94,86,71,30.14,29.91,3,0,9,0.00
2013-10-30,58,48,44,47,40,29,90,74,50,30.23,30.13,1,0,5,0.00